Time;durP1;ratioP1;P1;durP2;ratioP2;P2;SDS_P1;SDS_P2;PMS_P1;PMS_P2;Temp;Humidity;BMP_temperature;BMP_pressure;BME280_temperature;BME280_humidity;BME280_pressure;Samples;Min_cycle;Max_cycle;Signal;HPM_P1;HPM_P2
2022/06/29 00:00:09;;;;;;;3.47;3.17;;;23.60;99.90;;;;;;5093612;28;20038;-77
2022/06/29 00:02:36;;;;;;;3.55;2.47;;;23.50;99.90;;;;;;5093655;28;20474;-76
2022/06/29 00:05:06;;;;;;;2.90;2.65;;;23.50;99.90;;;;;;5093056;28;20534;-76
2022/06/29 00:07:31;;;;;;;3.45;3.10;;;23.50;99.90;;;;;;5093326;28;20077;-75
2022/06/29 00:09:57;;;;;;;3.53;2.35;;;23.50;99.90;;;;;;5093238;28;20398;-76
2022/06/29 00:12:23;;;;;;;7.90;2.78;;;23.40;99.90;;;;;;5093537;28;20020;-76
2022/06/29 00:14:48;;;;;;;2.53;2.33;;;23.40;99.90;;;;;;5093243;28;20568;-76
2022/06/29 00:17:14;;;;;;;2.58;2.20;;;23.40;99.90;;;;;;5093227;28;20020;-76
2022/06/29 00:19:40;;;;;;;2.88;2.67;;;23.40;99.90;;;;;;5091726;28;20100;-78
2022/06/29 00:22:08;;;;;;;2.20;2.00;;;23.40;99.90;;;;;;5093150;28;20482;-76
2022/06/29 00:24:34;;;;;;;4.05;2.67;;;23.40;99.90;;;;;;5093181;28;20494;-82
2022/06/29 00:27:00;;;;;;;4.05;2.83;;;23.30;99.90;;;;;;5093018;28;20008;-76
2022/06/29 00:29:26;;;;;;;3.10;2.50;;;23.20;99.90;;;;;;5091581;28;20043;-76
2022/06/29 00:31:52;;;;;;;4.18;3.22;;;23.20;99.90;;;;;;5091573;28;20621;-77
2022/06/29 00:34:18;;;;;;;2.97;2.67;;;23.20;99.90;;;;;;5093207;28;20095;-79
2022/06/29 00:36:44;;;;;;;3.00;2.70;;;23.10;99.90;;;;;;5091471;28;20133;-77
2022/06/29 00:39:10;;;;;;;3.95;2.97;;;23.20;99.90;;;;;;5092049;28;20147;-75
2022/06/29 00:41:44;;;;;;;3.75;2.80;;;23.10;99.90;;;;;;5092688;28;20348;-76
2022/06/29 00:44:14;;;;;;;2.85;2.55;;;23.10;99.90;;;;;;5092631;28;20031;-76
2022/06/29 00:47:00;;;;;;;3.13;2.80;;;23.10;99.90;;;;;;5092853;28;20035;-76
2022/06/29 00:49:29;;;;;;;3.38;3.03;;;23.10;99.90;;;;;;5092703;28;20027;-76
2022/06/29 00:52:16;;;;;;;3.70;2.75;;;23.10;99.90;;;;;;5092487;28;20036;-76
2022/06/29 00:54:49;;;;;;;3.30;3.10;;;23.10;99.90;;;;;;5092677;28;20027;-76
2022/06/29 00:57:18;;;;;;;5.88;2.92;;;23.10;99.90;;;;;;5092561;28;20054;-76
2022/06/29 00:59:47;;;;;;;4.43;3.38;;;23.10;99.90;;;;;;5092347;28;20355;-76
2022/06/29 01:02:14;;;;;;;4.50;2.65;;;23.10;99.90;;;;;;5092587;28;20028;-77
2022/06/29 01:04:41;;;;;;;7.70;2.97;;;23.10;99.90;;;;;;5090799;28;20048;-76
2022/06/29 01:07:07;;;;;;;5.85;3.70;;;23.10;99.90;;;;;;5092329;28;20479;-75
2022/06/29 01:09:33;;;;;;;3.30;3.00;;;23.10;99.90;;;;;;5092347;28;20027;-77
2022/06/29 01:11:59;;;;;;;3.75;2.85;;;23.10;99.90;;;;;;5092056;28;20111;-76
2022/06/29 01:14:25;;;;;;;9.13;3.13;;;23.20;99.90;;;;;;5092402;28;20131;-76
2022/06/29 01:16:50;;;;;;;6.03;2.97;;;23.10;99.90;;;;;;5090887;28;20094;-76
2022/06/29 01:19:16;;;;;;;2.90;2.65;;;23.10;99.90;;;;;;5092155;28;20374;-78
2022/06/29 01:21:45;;;;;;;4.28;3.65;;;23.10;99.90;;;;;;5092566;28;20027;-75
2022/06/29 01:24:11;;;;;;;3.15;2.95;;;23.10;99.90;;;;;;5091100;28;20431;-76
2022/06/29 01:26:36;;;;;;;3.13;2.60;;;23.10;99.90;;;;;;5092113;28;20055;-76
2022/06/29 01:29:02;;;;;;;4.72;2.83;;;23.10;99.90;;;;;;5091956;28;20521;-87
2022/06/29 01:31:27;;;;;;;2.70;2.50;;;23.10;99.90;;;;;;5092137;28;20036;-75
2022/06/29 01:33:53;;;;;;;2.88;2.58;;;23.10;99.90;;;;;;5092233;28;20046;-83
2022/06/29 01:36:19;;;;;;;4.65;3.10;;;23.10;99.90;;;;;;5091943;28;20490;-76
2022/06/29 01:38:45;;;;;;;2.53;2.33;;;23.00;99.90;;;;;;5090815;28;20016;-76
2022/06/29 01:41:11;;;;;;;3.95;2.50;;;23.10;99.90;;;;;;5090522;28;20077;-76
2022/06/29 01:43:40;;;;;;;3.30;2.50;;;23.10;99.90;;;;;;5090581;28;20463;-77
2022/06/29 01:46:06;;;;;;;3.13;2.83;;;23.00;99.90;;;;;;5091902;28;20039;-78
2022/06/29 01:48:32;;;;;;;3.53;2.90;;;23.00;99.90;;;;;;5091962;28;20017;-78
2022/06/29 01:50:58;;;;;;;2.58;2.35;;;23.00;99.90;;;;;;5096104;28;20379;-75
2022/06/29 01:53:25;;;;;;;3.20;2.97;;;23.00;99.90;;;;;;5095914;28;20028;-76
2022/06/29 01:55:50;;;;;;;6.15;3.00;;;23.00;99.90;;;;;;5095637;28;20547;-76
2022/06/29 01:58:16;;;;;;;2.70;2.45;;;23.00;99.90;;;;;;5095684;28;20024;-79
2022/06/29 02:00:43;;;;;;;4.30;2.95;;;22.90;99.90;;;;;;5095905;28;20154;-77
2022/06/29 02:03:09;;;;;;;3.65;3.35;;;22.90;99.90;;;;;;5095722;28;20036;-77
2022/06/29 02:05:35;;;;;;;3.15;2.78;;;22.90;99.90;;;;;;5095405;28;20052;-75
2022/06/29 02:08:01;;;;;;;3.70;2.65;;;22.90;99.90;;;;;;5095564;28;20016;-77
2022/06/29 02:10:27;;;;;;;3.38;2.90;;;22.80;99.90;;;;;;5095311;28;20042;-75
2022/06/29 02:12:52;;;;;;;3.20;2.90;;;22.80;99.90;;;;;;5095506;28;20032;-84
2022/06/29 02:15:18;;;;;;;4.40;2.78;;;22.80;99.90;;;;;;5095458;28;20058;-76
2022/06/29 02:17:44;;;;;;;4.85;2.45;;;22.80;99.90;;;;;;5095121;28;20028;-77
2022/06/29 02:20:11;;;;;;;2.78;2.58;;;22.80;99.90;;;;;;5095129;28;20024;-75
2022/06/29 02:22:37;;;;;;;2.60;2.40;;;22.80;99.90;;;;;;5095153;28;20023;-78
2022/06/29 02:25:03;;;;;;;3.42;2.67;;;22.80;99.90;;;;;;5095605;28;20024;-76
2022/06/29 02:27:29;;;;;;;3.78;2.35;;;22.80;99.90;;;;;;5095024;28;20111;-75
2022/06/29 02:29:55;;;;;;;5.20;3.13;;;22.80;99.90;;;;;;5095270;28;20095;-76
2022/06/29 02:35:05;;;;;;;4.13;3.55;;;22.80;99.90;;;;;;5095391;28;20371;-76
2022/06/29 02:37:31;;;;;;;3.25;2.95;;;22.80;99.90;;;;;;5095073;28;20031;-76
2022/06/29 02:39:56;;;;;;;6.50;2.90;;;22.80;99.90;;;;;;5095147;28;20055;-76
2022/06/29 02:42:22;;;;;;;5.05;3.70;;;22.80;99.90;;;;;;5095171;28;20078;-76
2022/06/29 02:44:48;;;;;;;4.75;3.72;;;22.80;99.90;;;;;;5093422;28;20024;-76
2022/06/29 02:47:14;;;;;;;3.95;3.50;;;22.80;99.90;;;;;;5094871;28;20089;-76
2022/06/29 02:49:40;;;;;;;6.70;3.83;;;22.80;99.90;;;;;;5093648;28;20028;-76
2022/06/29 02:52:05;;;;;;;5.57;3.58;;;22.90;99.90;;;;;;5094995;28;20440;-78
2022/06/29 02:54:31;;;;;;;3.17;2.88;;;22.80;99.90;;;;;;5094728;28;20503;-76
2022/06/29 02:56:57;;;;;;;3.88;2.60;;;22.80;99.90;;;;;;5094875;28;20032;-77
2022/06/29 02:59:23;;;;;;;4.60;2.50;;;22.80;99.90;;;;;;5094736;28;20047;-82
2022/06/29 03:01:49;;;;;;;2.95;2.38;;;22.70;99.90;;;;;;5093908;28;20387;-76
2022/06/29 03:04:14;;;;;;;2.50;2.25;;;22.70;99.90;;;;;;5094476;28;20097;-76
2022/06/29 03:06:41;;;;;;;2.67;2.47;;;22.70;99.90;;;;;;5094737;28;20036;-76
2022/06/29 03:09:07;;;;;;;4.13;2.92;;;22.70;99.90;;;;;;5094383;28;20012;-75
2022/06/29 03:11:33;;;;;;;6.75;2.80;;;22.60;99.90;;;;;;5094514;28;20488;-78
2022/06/29 03:13:59;;;;;;;3.35;2.75;;;22.60;99.90;;;;;;5094173;28;20063;-76
2022/06/29 03:16:24;;;;;;;4.45;2.47;;;22.60;99.90;;;;;;5094423;28;20115;-75
2022/06/29 03:18:50;;;;;;;2.65;2.45;;;22.50;99.90;;;;;;5094502;28;20421;-77
2022/06/29 03:21:17;;;;;;;2.42;2.28;;;22.50;99.90;;;;;;5094169;28;20103;-76
2022/06/29 03:23:44;;;;;;;2.25;2.08;;;22.40;99.90;;;;;;5092904;28;20020;-76
2022/06/29 03:26:11;;;;;;;3.88;2.25;;;22.40;99.90;;;;;;5094115;28;20059;-76
2022/06/29 03:28:37;;;;;;;3.60;2.75;;;22.30;99.90;;;;;;5094381;28;20047;-81
2022/06/29 03:31:03;;;;;;;3.70;3.08;;;22.30;99.90;;;;;;5094127;28;20506;-77
2022/06/29 03:33:29;;;;;;;2.20;1.92;;;22.30;99.90;;;;;;5093485;28;20141;-76
2022/06/29 03:35:54;;;;;;;3.47;2.70;;;22.40;99.90;;;;;;5093809;28;20093;-75
2022/06/29 03:38:20;;;;;;;2.88;2.20;;;22.80;99.90;;;;;;5094160;28;20036;-87
2022/06/29 03:40:46;;;;;;;2.55;2.28;;;23.10;99.90;;;;;;5094105;28;20028;-75
2022/06/29 03:43:11;;;;;;;2.97;2.60;;;23.20;99.90;;;;;;5093883;28;20028;-78
2022/06/29 03:45:37;;;;;;;3.95;2.65;;;23.40;99.90;;;;;;5096137;28;20455;-74
2022/06/29 03:48:03;;;;;;;7.30;3.25;;;23.50;99.90;;;;;;5093795;28;20368;-74
2022/06/29 03:50:29;;;;;;;3.35;2.47;;;23.50;99.90;;;;;;5095185;28;20027;-75
2022/06/29 03:52:54;;;;;;;4.05;3.05;;;23.40;99.90;;;;;;5096224;28;20040;-75
2022/06/29 03:55:20;;;;;;;6.95;2.85;;;23.50;99.90;;;;;;5093727;28;20044;-76
2022/06/29 03:57:46;;;;;;;4.63;2.78;;;23.70;99.90;;;;;;5093239;28;20028;-76
2022/06/29 04:00:12;;;;;;;2.50;2.30;;;23.80;99.90;;;;;;5093588;28;20115;-77
2022/06/29 04:02:38;;;;;;;3.92;2.63;;;23.90;99.90;;;;;;5093339;28;20027;-75
2022/06/29 04:05:04;;;;;;;3.45;2.42;;;24.10;99.90;;;;;;5093174;28;20055;-77
2022/06/29 04:07:33;;;;;;;2.47;2.28;;;23.80;99.90;;;;;;5093328;28;20016;-75
2022/06/29 04:10:01;;;;;;;3.15;2.38;;;23.70;99.90;;;;;;5092033;28;20052;-76
2022/06/29 04:12:28;;;;;;;3.83;2.58;;;23.60;99.90;;;;;;5092340;28;20599;-75
2022/06/29 04:14:54;;;;;;;3.20;2.88;;;23.60;99.90;;;;;;5093087;28;20371;-75
2022/06/29 04:17:20;;;;;;;3.75;3.03;;;23.60;99.90;;;;;;5093192;28;20349;-75
2022/06/29 04:19:45;;;;;;;4.57;3.10;;;23.70;99.90;;;;;;5093133;28;20078;-75
2022/06/29 04:22:11;;;;;;;3.45;2.35;;;23.80;99.90;;;;;;5092041;28;20024;-75
2022/06/29 04:24:36;;;;;;;3.55;3.13;;;23.80;99.90;;;;;;5093179;28;20038;-76
2022/06/29 04:27:03;;;;;;;3.58;3.28;;;23.90;99.90;;;;;;5093170;28;20020;-75
2022/06/29 04:29:28;;;;;;;3.67;2.78;;;23.70;99.90;;;;;;5092896;28;20032;-74
2022/06/29 04:31:54;;;;;;;4.25;2.95;;;23.80;99.90;;;;;;5093038;28;20551;-76
2022/06/29 04:34:20;;;;;;;4.70;3.20;;;23.80;99.90;;;;;;5093028;28;20020;-76
2022/06/29 04:36:45;;;;;;;4.25;2.53;;;23.90;99.90;;;;;;5092973;28;20028;-77
2022/06/29 04:39:11;;;;;;;5.90;2.70;;;24.00;99.90;;;;;;5092622;28;20020;-75
2022/06/29 04:41:37;;;;;;;3.45;2.85;;;24.10;99.90;;;;;;5092758;28;20042;-75
2022/06/29 04:44:02;;;;;;;4.28;2.88;;;24.20;99.90;;;;;;5092643;28;20020;-75
2022/06/29 04:46:28;;;;;;;2.70;2.50;;;24.20;99.90;;;;;;5092393;28;20028;-74
2022/06/29 04:48:58;;;;;;;4.85;3.22;;;24.20;99.90;;;;;;5092422;28;20036;-78
2022/06/29 04:51:26;;;;;;;6.70;3.00;;;24.20;99.90;;;;;;5091066;28;20047;-79
2022/06/29 04:53:56;;;;;;;3.78;3.00;;;24.10;99.90;;;;;;5092233;28;20028;-79
2022/06/29 04:56:27;;;;;;;4.22;2.80;;;24.20;99.90;;;;;;5092189;28;20016;-83
2022/06/29 04:58:53;;;;;;;5.85;2.97;;;24.20;99.90;;;;;;5092087;28;20028;-79
2022/06/29 05:01:21;;;;;;;5.97;4.60;;;24.30;99.90;;;;;;5092527;28;20051;-79
2022/06/29 05:03:46;;;;;;;3.95;3.22;;;24.30;99.90;;;;;;5091819;28;20103;-79
2022/06/29 05:06:12;;;;;;;6.25;3.45;;;24.10;99.90;;;;;;5090532;28;20151;-79
2022/06/29 05:08:38;;;;;;;6.00;3.65;;;24.10;99.90;;;;;;5092429;28;20078;-80
2022/06/29 05:11:04;;;;;;;3.70;3.03;;;24.10;99.90;;;;;;5092055;28;20364;-79
2022/06/29 05:13:29;;;;;;;4.78;3.40;;;24.10;99.90;;;;;;5092477;28;20050;-80
2022/06/29 05:15:55;;;;;;;3.63;3.28;;;24.30;99.90;;;;;;5090985;28;20073;-79
2022/06/29 05:18:21;;;;;;;3.28;2.47;;;24.40;99.90;;;;;;5092226;28;20467;-80
2022/06/29 05:20:47;;;;;;;4.78;3.25;;;24.60;99.90;;;;;;5092455;28;20490;-80
2022/06/29 05:23:12;;;;;;;4.25;3.47;;;24.70;99.90;;;;;;5090749;28;20459;-78
2022/06/29 05:25:39;;;;;;;3.38;3.08;;;24.90;99.90;;;;;;5090270;28;20429;-78
2022/06/29 05:28:05;;;;;;;3.85;2.83;;;25.00;99.90;;;;;;5092170;28;20023;-78
2022/06/29 05:30:31;;;;;;;7.18;2.92;;;25.30;99.90;;;;;;5092040;28;20032;-78
2022/06/29 05:32:57;;;;;;;6.47;2.80;;;25.40;99.90;;;;;;5092210;28;20047;-78
2022/06/29 05:35:22;;;;;;;4.05;3.22;;;25.60;99.90;;;;;;5092198;28;20024;-78
2022/06/29 05:37:48;;;;;;;5.53;2.40;;;25.80;99.90;;;;;;5092117;28;20097;-78
2022/06/29 05:40:14;;;;;;;2.85;2.65;;;26.00;99.90;;;;;;5091914;28;20459;-78
2022/06/29 05:42:39;;;;;;;2.92;2.60;;;26.20;99.90;;;;;;5092041;28;20024;-78
2022/06/29 05:45:06;;;;;;;3.63;2.60;;;26.30;99.90;;;;;;5091986;28;20100;-78
2022/06/29 05:47:31;;;;;;;3.67;2.03;;;26.40;99.90;;;;;;5091861;28;20398;-79
2022/06/29 05:50:00;;;;;;;2.75;1.80;;;26.60;99.90;;;;;;5090811;28;20038;-79
2022/06/29 05:52:26;;;;;;;3.05;2.17;;;26.80;99.10;;;;;;5091951;28;20414;-78
2022/06/29 05:54:51;;;;;;;2.50;1.75;;;26.90;99.00;;;;;;5091669;28;20028;-77
2022/06/29 05:57:19;;;;;;;4.30;2.08;;;27.00;97.70;;;;;;5092088;28;20438;-78
2022/06/29 05:59:48;;;;;;;4.60;3.88;;;27.10;97.10;;;;;;5091892;28;20016;-78
2022/06/29 06:02:13;;;;;;;3.22;2.00;;;27.10;96.80;;;;;;5091934;28;20030;-78
2022/06/29 06:04:40;;;;;;;2.40;1.92;;;27.30;97.10;;;;;;5091872;28;20555;-79
2022/06/29 06:07:05;;;;;;;3.90;1.98;;;27.40;97.10;;;;;;5091406;28;20028;-76
2022/06/29 06:09:32;;;;;;;2.30;2.10;;;27.50;95.60;;;;;;5091292;28;20352;-76
2022/06/29 06:11:58;;;;;;;5.13;2.38;;;27.80;94.90;;;;;;5091614;28;20044;-74
2022/06/29 06:14:24;;;;;;;3.88;2.30;;;27.80;94.10;;;;;;5091895;28;20028;-74
2022/06/29 06:16:50;;;;;;;4.07;1.80;;;27.70;93.50;;;;;;5091443;28;20027;-73
2022/06/29 06:19:16;;;;;;;1.67;1.58;;;27.80;93.80;;;;;;5090061;28;20017;-74
2022/06/29 06:21:41;;;;;;;4.80;2.67;;;27.80;93.40;;;;;;5091332;28;20031;-76
2022/06/29 06:24:07;;;;;;;3.25;1.95;;;27.90;92.90;;;;;;5091819;28;20510;-74
2022/06/29 06:26:32;;;;;;;2.83;2.00;;;28.00;91.30;;;;;;5092343;28;20065;-74
2022/06/29 06:28:59;;;;;;;2.85;1.67;;;28.10;92.40;;;;;;5092534;28;20016;-74
2022/06/29 06:31:25;;;;;;;7.03;2.50;;;28.10;91.30;;;;;;5092489;28;20040;-74
2022/06/29 06:33:51;;;;;;;4.72;1.98;;;28.40;91.70;;;;;;5092074;28;20028;-74
2022/06/29 06:36:16;;;;;;;2.47;1.85;;;28.50;90.30;;;;;;5093509;28;20154;-80
2022/06/29 06:38:42;;;;;;;3.47;1.90;;;28.70;91.90;;;;;;5095012;28;20024;-74
2022/06/29 06:41:25;;;;;;;12.45;2.28;;;28.70;92.80;;;;;;5094899;28;20494;-74
2022/06/29 06:43:56;;;;;;;7.88;1.90;;;28.70;91.40;;;;;;5094852;28;20054;-74
2022/06/29 06:46:22;;;;;;;3.13;2.53;;;28.60;91.70;;;;;;5094553;28;20040;-74
2022/06/29 06:48:50;;;;;;;5.55;2.17;;;28.60;91.00;;;;;;5094820;28;20541;-74
2022/06/29 06:51:16;;;;;;;2.88;2.40;;;28.60;92.10;;;;;;5094581;28;20058;-74
2022/06/29 06:53:43;;;;;;;2.17;1.80;;;28.70;90.50;;;;;;5094525;28;20027;-74
2022/06/29 06:56:08;;;;;;;2.13;1.92;;;28.80;89.70;;;;;;5094659;28;20119;-74
2022/06/29 06:58:37;;;;;;;5.97;1.70;;;28.90;89.90;;;;;;5094461;28;20502;-74
2022/06/29 07:01:07;;;;;;;5.10;1.67;;;29.10;88.00;;;;;;5094514;28;20032;-74
2022/06/29 07:03:37;;;;;;;2.70;1.70;;;29.40;87.20;;;;;;5094847;28;20028;-76
2022/06/29 07:06:05;;;;;;;2.00;1.77;;;29.50;86.40;;;;;;5094165;28;20418;-75
2022/06/29 07:08:32;;;;;;;4.32;1.42;;;29.90;93.00;;;;;;5094754;28;20806;-79
2022/06/29 07:11:01;;;;;;;2.85;2.00;;;29.80;96.00;;;;;;5089836;28;20033;-89
2022/06/29 07:13:28;;;;;;;3.30;1.27;;;;;;;;;;5074227;28;20056;-76
2022/06/29 07:15:54;;;;;;;2.35;1.60;;;30.50;95.50;;;;;;5074160;28;20044;-76
2022/06/29 07:18:19;;;;;;;3.85;2.17;;;30.60;86.40;;;;;;5072679;28;20510;-76
2022/06/29 07:20:45;;;;;;;2.30;2.10;;;30.70;81.30;;;;;;5074013;28;20024;-77
2022/06/29 07:23:11;;;;;;;4.78;1.65;;;30.70;80.20;;;;;;5073690;28;20021;-77
2022/06/29 07:25:37;;;;;;;1.58;1.48;;;30.80;81.10;;;;;;5074032;28;20024;-76
2022/06/29 07:28:03;;;;;;;1.77;1.65;;;30.80;80.10;;;;;;5074009;28;20414;-77
2022/06/29 07:30:28;;;;;;;1.95;1.85;;;30.60;80.00;;;;;;5073895;28;20048;-77
2022/06/29 07:32:54;;;;;;;2.25;2.10;;;30.50;80.30;;;;;;5073921;28;20105;-77
2022/06/29 07:35:20;;;;;;;15.02;3.05;;;30.60;81.10;;;;;;5073733;28;20028;-76
2022/06/29 07:37:45;;;;;;;2.80;1.58;;;30.50;79.80;;;;;;5073652;28;20375;-76
2022/06/29 07:40:12;;;;;;;6.55;1.77;;;30.40;80.60;;;;;;5073561;28;20025;-76
2022/06/29 07:42:38;;;;;;;4.55;1.70;;;30.50;80.10;;;;;;5073428;28;20685;-76
2022/06/29 07:45:05;;;;;;;4.15;1.75;;;30.50;79.30;;;;;;5073422;28;20043;-75
2022/06/29 07:47:32;;;;;;;3.50;1.55;;;30.50;79.60;;;;;;5073075;28;20024;-76
2022/06/29 07:49:58;;;;;;;2.22;1.55;;;30.60;80.20;;;;;;5073511;28;21010;-77
2022/06/29 07:52:24;;;;;;;4.22;1.60;;;30.70;80.20;;;;;;5072851;28;20504;-77
2022/06/29 07:54:50;;;;;;;6.53;2.20;;;30.60;80.20;;;;;;5073354;28;20028;-76
2022/06/29 07:57:16;;;;;;;6.63;1.98;;;30.60;81.00;;;;;;5073395;28;20027;-76
2022/06/29 07:59:42;;;;;;;12.38;3.40;;;30.50;81.10;;;;;;5073007;28;20017;-76
2022/06/29 08:02:07;;;;;;;6.05;2.00;;;30.50;81.70;;;;;;5073182;28;20529;-77
2022/06/29 08:04:33;;;;;;;1.60;1.50;;;30.60;81.20;;;;;;5073138;28;20058;-78
2022/06/29 08:06:59;;;;;;;4.57;1.63;;;30.70;80.10;;;;;;5073045;28;20036;-77
2022/06/29 08:09:24;;;;;;;3.42;1.77;;;30.80;79.70;;;;;;5072870;28;20028;-77
2022/06/29 08:11:51;;;;;;;3.22;1.77;;;30.90;80.10;;;;;;5072721;28;20427;-78
2022/06/29 08:14:17;;;;;;;2.83;1.80;;;31.00;78.10;;;;;;5072662;28;20021;-77
2022/06/29 08:16:43;;;;;;;8.20;2.05;;;31.10;78.70;;;;;;5072648;28;20017;-77
2022/06/29 08:19:09;;;;;;;4.50;1.83;;;31.00;78.10;;;;;;5072462;28;20031;-77
2022/06/29 08:21:34;;;;;;;3.42;2.03;;;31.10;77.80;;;;;;5072646;28;20028;-77
2022/06/29 08:24:00;;;;;;;5.90;2.33;;;31.00;77.30;;;;;;5072565;28;20020;-77
2022/06/29 08:26:26;;;;;;;2.47;1.80;;;31.00;78.00;;;;;;5072366;28;20036;-77
2022/06/29 08:28:52;;;;;;;2.40;1.90;;;31.10;77.60;;;;;;5072505;28;20020;-77
2022/06/29 08:31:17;;;;;;;4.10;2.30;;;31.20;78.20;;;;;;5072456;28;20043;-76
2022/06/29 08:33:43;;;;;;;2.00;1.80;;;31.40;79.10;;;;;;5072927;28;20475;-76
2022/06/29 08:36:09;;;;;;;3.42;1.60;;;31.50;78.70;;;;;;5072903;28;20452;-76
2022/06/29 08:38:35;;;;;;;4.63;1.95;;;31.50;75.80;;;;;;5072547;28;20033;-76
2022/06/29 08:41:00;;;;;;;4.40;1.73;;;31.50;76.00;;;;;;5072554;28;20035;-87
2022/06/29 08:43:27;;;;;;;9.85;2.17;;;31.40;75.10;;;;;;5073244;28;20031;-82
2022/06/29 08:45:53;;;;;;;2.15;1.60;;;31.30;74.60;;;;;;5073262;28;20025;-83
2022/06/29 08:48:19;;;;;;;2.53;1.70;;;31.40;77.20;;;;;;5073546;28;20112;-81
2022/06/29 08:50:54;;;;;;;1.88;1.70;;;31.40;73.60;;;;;;5072790;28;20436;-76
2022/06/29 08:53:21;;;;;;;2.35;1.80;;;31.50;76.10;;;;;;5072634;28;20020;-77
2022/06/29 08:55:49;;;;;;;3.40;1.63;;;31.50;75.70;;;;;;5072928;28;20371;-90
2022/06/29 08:58:20;;;;;;;2.38;1.70;;;31.80;77.30;;;;;;5072564;28;20025;-76
2022/06/29 09:00:49;;;;;;;2.42;1.58;;;31.90;75.40;;;;;;5071833;28;20020;-79
2022/06/29 09:03:17;;;;;;;2.38;1.88;;;31.70;73.80;;;;;;5072144;28;20075;-80
2022/06/29 09:05:54;;;;;;;2.05;1.70;;;31.60;74.10;;;;;;5070528;28;20554;-79
2022/06/29 09:08:21;;;;;;;1.48;1.38;;;31.80;74.30;;;;;;5070643;28;20112;-79
2022/06/29 09:10:47;;;;;;;5.97;1.92;;;31.80;73.40;;;;;;5072047;28;20028;-79
2022/06/29 09:13:22;;;;;;;3.42;1.38;;;31.80;74.40;;;;;;5072168;28;20483;-79
2022/06/29 09:15:58;;;;;;;3.28;1.92;;;32.00;73.60;;;;;;5070721;28;20119;-78
2022/06/29 09:18:33;;;;;;;3.28;1.92;;;32.20;71.70;;;;;;5071867;28;20029;-79
2022/06/29 09:21:01;;;;;;;1.75;1.65;;;32.30;71.20;;;;;;5071005;28;20085;-79
2022/06/29 09:23:28;;;;;;;2.00;1.67;;;32.40;70.20;;;;;;5072126;28;20025;-80
2022/06/29 09:25:54;;;;;;;1.60;1.42;;;32.40;69.50;;;;;;5070815;28;20028;-80
2022/06/29 09:28:28;;;;;;;1.58;1.45;;;32.50;69.70;;;;;;5071695;28;20020;-80
2022/06/29 09:30:55;;;;;;;2.50;1.40;;;32.50;70.00;;;;;;5071817;28;20086;-80
2022/06/29 09:33:25;;;;;;;2.72;1.70;;;32.50;69.50;;;;;;5071898;28;20257;-80
2022/06/29 09:36:07;;;;;;;1.98;1.30;;;32.50;70.40;;;;;;5071934;28;20021;-79
2022/06/29 09:38:33;;;;;;;3.10;1.30;;;32.40;69.40;;;;;;5071978;28;20426;-80
2022/06/29 09:41:25;;;;;;;7.65;1.77;;;32.60;70.20;;;;;;5071632;28;20474;-80
2022/06/29 09:43:51;;;;;;;3.75;1.77;;;32.60;69.40;;;;;;5069374;28;20039;-80
2022/06/29 09:46:17;;;;;;;1.63;1.52;;;32.80;66.90;;;;;;5071383;28;20025;-79
2022/06/29 09:48:43;;;;;;;2.63;1.40;;;33.00;67.70;;;;;;5071464;28;20025;-80
2022/06/29 09:53:59;;;;;;;3.20;1.35;;;33.10;66.00;;;;;;5083070;28;20066;-79
2022/06/29 09:56:28;;;;;;;2.67;1.40;;;33.00;65.30;;;;;;5091853;28;20074;-78
2022/06/29 09:58:58;;;;;;;6.72;1.77;;;32.90;66.00;;;;;;5091715;28;20115;-79
2022/06/29 10:04:11;;;;;;;1.95;1.83;;;32.60;66.10;;;;;;5092260;28;20031;-82
2022/06/29 10:06:37;;;;;;;3.03;1.77;;;32.60;64.40;;;;;;5090698;28;20118;-84
2022/06/29 10:09:03;;;;;;;1.95;1.30;;;32.60;66.40;;;;;;5090989;28;20115;-84
2022/06/29 10:14:38;;;;;;;6.15;1.52;;;32.60;66.20;;;;;;5096438;28;20039;-84
2022/06/29 10:17:29;;;;;;;1.80;1.35;;;32.60;65.20;;;;;;5095552;28;20066;-83
2022/06/29 10:20:34;;;;;;;2.92;1.33;;;32.80;64.50;;;;;;5094379;28;20118;-83
2022/06/29 10:23:00;;;;;;;3.22;1.60;;;33.00;64.80;;;;;;5094077;28;20024;-82
2022/06/29 10:25:28;;;;;;;6.80;1.65;;;33.30;65.70;;;;;;5096255;28;20031;-91
2022/06/29 10:28:16;;;;;;;4.00;1.30;;;33.60;66.40;;;;;;5096109;28;20028;-89
2022/06/29 10:30:44;;;;;;;4.03;1.38;;;33.80;64.00;;;;;;5095713;28;20036;-80
2022/06/29 10:33:34;;;;;;;4.50;1.60;;;34.00;62.70;;;;;;5095072;28;20024;-78
2022/06/29 10:36:05;;;;;;;1.25;1.10;;;33.90;62.30;;;;;;5094014;28;20032;-78
2022/06/29 10:38:55;;;;;;;4.07;1.50;;;33.90;63.30;;;;;;5095571;28;20032;-92
2022/06/29 10:44:06;;;;;;;3.60;1.60;;;34.10;63.10;;;;;;5095486;28;20084;-77
2022/06/29 10:46:56;;;;;;;5.35;1.58;;;34.20;72.40;;;;;;5095790;28;20031;-79
2022/06/29 10:49:23;;;;;;;1.75;1.23;;;34.30;63.60;;;;;;5095173;28;20087;-80
2022/06/29 10:51:51;;;;;;;2.22;1.38;;;34.40;61.90;;;;;;5093421;28;20035;-77
2022/06/29 10:54:29;;;;;;;4.18;1.35;;;34.50;60.30;;;;;;5094842;28;20028;-77
2022/06/29 10:56:55;;;;;;;2.63;1.38;;;34.50;62.80;;;;;;5094686;28;20120;-77
2022/06/29 10:59:34;;;;;;;3.63;1.50;;;34.60;62.00;;;;;;5094682;28;20024;-81
2022/06/29 11:02:10;;;;;;;2.38;1.58;;;34.70;60.90;;;;;;5095067;28;20043;-80
2022/06/29 11:04:37;;;;;;;3.40;1.95;;;34.70;61.40;;;;;;5096236;28;20044;-80
2022/06/29 11:12:45;;;;;;;2.95;1.85;;;34.80;61.50;;;;;;5095125;28;20387;-94
2022/06/29 11:17:55;;;;;;;1.77;1.60;;;34.60;60.10;;;;;;5094171;28;20116;-81
2022/06/29 11:20:22;;;;;;;3.10;1.60;;;34.50;59.60;;;;;;5092964;28;20103;-81
2022/06/29 11:22:55;;;;;;;2.38;1.48;;;34.30;59.20;;;;;;5092324;28;20028;-80
2022/06/29 11:25:21;;;;;;;1.73;1.48;;;34.20;58.00;;;;;;5094215;28;20340;-78
2022/06/29 11:27:48;;;;;;;5.57;1.10;;;34.10;58.70;;;;;;5094203;28;20036;-79
2022/06/29 11:30:19;;;;;;;1.88;1.77;;;34.10;61.00;;;;;;5093858;28;20065;-80
2022/06/29 11:32:46;;;;;;;4.18;1.48;;;34.20;61.00;;;;;;5092680;28;20028;-78
2022/06/29 11:35:21;;;;;;;1.25;1.13;;;34.20;60.60;;;;;;5092579;28;20052;-78
2022/06/29 11:37:51;;;;;;;;;;;34.30;60.80;;;;;;5094619;28;20074;-78
2022/06/29 11:40:35;;;;;;;2.53;1.63;;;34.30;59.70;;;;;;5093696;28;20351;-78
2022/06/29 11:43:05;;;;;;;3.95;1.83;;;34.30;60.70;;;;;;5093936;28;20039;-79
2022/06/29 11:45:45;;;;;;;4.45;1.65;;;34.30;60.60;;;;;;5093833;28;20016;-78
2022/06/29 11:48:11;;;;;;;3.55;1.38;;;34.40;61.20;;;;;;5093402;28;20020;-79
2022/06/29 11:50:49;;;;;;;2.88;1.38;;;34.40;60.80;;;;;;5084809;28;20034;-84
2022/06/29 11:53:41;;;;;;;2.25;1.98;;;34.40;60.70;;;;;;5093663;28;20028;-79
2022/06/29 11:56:12;;;;;;;3.60;1.67;;;34.40;61.30;;;;;;5093378;28;20020;-79
2022/06/29 11:58:52;;;;;;;2.28;1.60;;;34.50;60.90;;;;;;5093134;28;20012;-79
2022/06/29 12:01:23;;;;;;;1.90;1.10;;;34.40;59.70;;;;;;5092001;28;20024;-79
2022/06/29 12:03:49;;;;;;;2.33;1.45;;;34.30;60.10;;;;;;5093258;28;20047;-79
2022/06/29 12:06:16;;;;;;;2.15;1.35;;;34.30;60.70;;;;;;5093172;28;20040;-78
2022/06/29 12:08:42;;;;;;;3.15;1.58;;;34.40;60.30;;;;;;5093041;28;20024;-78
2022/06/29 12:11:08;;;;;;;3.03;1.40;;;34.30;60.70;;;;;;5093071;28;20387;-78
2022/06/29 12:13:34;;;;;;;7.47;1.80;;;34.50;60.60;;;;;;5093065;28;20379;-79
2022/06/29 12:15:59;;;;;;;4.43;1.38;;;34.40;60.70;;;;;;5093106;28;20095;-79
2022/06/29 12:18:25;;;;;;;3.85;1.70;;;34.50;62.70;;;;;;5093207;28;20115;-79
2022/06/29 12:20:51;;;;;;;2.60;1.13;;;34.40;61.40;;;;;;5093239;28;20052;-78
2022/06/29 12:23:17;;;;;;;1.75;1.50;;;34.50;62.60;;;;;;5092953;28;20058;-79
2022/06/29 12:25:43;;;;;;;2.15;1.75;;;34.60;61.90;;;;;;5092125;28;20424;-79
2022/06/29 12:28:09;;;;;;;2.05;1.85;;;34.60;62.10;;;;;;5092831;28;20020;-81
2022/06/29 12:30:36;;;;;;;3.78;1.58;;;34.60;60.80;;;;;;5092964;28;20486;-79
2022/06/29 12:33:02;;;;;;;5.05;1.70;;;34.40;63.00;;;;;;5092509;28;20028;-79
2022/06/29 12:35:29;;;;;;;3.17;1.67;;;34.40;63.30;;;;;;5092490;28;20020;-78
2022/06/29 12:37:57;;;;;;;3.65;1.50;;;34.40;64.40;;;;;;5092860;28;20020;-78
2022/06/29 12:40:27;;;;;;;2.05;1.60;;;34.40;64.20;;;;;;5092745;28;20027;-78
2022/06/29 12:42:53;;;;;;;5.32;1.63;;;34.30;65.00;;;;;;5092917;28;20024;-78
2022/06/29 12:45:19;;;;;;;2.65;1.65;;;34.30;63.80;;;;;;5092875;28;20035;-79
2022/06/29 12:47:45;;;;;;;6.28;1.90;;;34.20;64.90;;;;;;5092989;28;20024;-78
2022/06/29 12:50:11;;;;;;;1.42;1.33;;;34.30;64.20;;;;;;5092811;28;20024;-79
2022/06/29 12:52:40;;;;;;;4.45;1.90;;;34.30;63.80;;;;;;5091266;28;20489;-79
2022/06/29 12:55:08;;;;;;;2.08;1.55;;;34.20;64.10;;;;;;5091240;28;20050;-79
2022/06/29 12:57:33;;;;;;;3.00;1.65;;;34.10;64.00;;;;;;5092444;28;20081;-79
2022/06/29 12:59:59;;;;;;;2.00;1.63;;;34.00;63.70;;;;;;5092634;28;20032;-79
2022/06/29 13:02:25;;;;;;;2.15;1.90;;;34.20;64.40;;;;;;5092394;28;20099;-79
2022/06/29 13:04:51;;;;;;;1.65;1.50;;;34.20;64.20;;;;;;5090996;28;20554;-79
2022/06/29 13:07:17;;;;;;;5.35;1.80;;;34.20;64.10;;;;;;5092360;28;20111;-79
2022/06/29 13:09:42;;;;;;;5.18;1.80;;;34.20;64.50;;;;;;5092170;28;20024;-79
2022/06/29 13:12:08;;;;;;;4.38;2.00;;;34.20;64.10;;;;;;5092376;28;20043;-80